Time;durP1;ratioP1;P1;durP2;ratioP2;P2;SDS_P1;SDS_P2;PMS_P1;PMS_P2;Temp;Humidity;BMP_temperature;BMP_pressure;BME280_temperature;BME280_humidity;BME280_pressure;Samples;Min_cycle;Max_cycle;Signal;HPM_P1;HPM_P2
2023/04/16 00:00:30;;;;;;;52.10;29.98;;;9.30;99.90;;;;;;5062580;28;20033;-73
2023/04/16 00:02:56;;;;;;;47.95;28.77;;;9.30;99.90;;;;;;5063957;28;20031;-74
2023/04/16 00:05:21;;;;;;;52.88;30.15;;;9.30;99.90;;;;;;5063971;28;20040;-73
2023/04/16 00:07:47;;;;;;;55.63;30.42;;;9.30;99.90;;;;;;5063673;28;20037;-75
2023/04/16 00:10:13;;;;;;;53.72;28.85;;;9.20;99.90;;;;;;5063727;28;20021;-73
2023/04/16 00:12:38;;;;;;;51.83;29.02;;;9.20;99.90;;;;;;5063826;28;20024;-73
2023/04/16 00:15:04;;;;;;;50.05;30.27;;;9.20;99.90;;;;;;5062317;28;20039;-75
2023/04/16 00:17:30;;;;;;;55.03;31.65;;;9.10;99.90;;;;;;5063873;28;20056;-74
2023/04/16 00:19:56;;;;;;;54.47;30.85;;;9.10;99.90;;;;;;5059267;28;20021;-75
2023/04/16 00:22:21;;;;;;;50.10;29.90;;;9.10;99.90;;;;;;5063537;28;20093;-75
2023/04/16 00:24:47;;;;;;;55.97;30.42;;;9.10;99.90;;;;;;5061891;28;20029;-73
2023/04/16 00:27:12;;;;;;;57.63;30.98;;;9.10;99.90;;;;;;5062003;28;20024;-73
2023/04/16 00:29:38;;;;;;;55.90;31.40;;;9.10;99.90;;;;;;5060828;28;20033;-75
2023/04/16 00:32:03;;;;;;;54.65;31.00;;;9.10;99.90;;;;;;5059988;28;20042;-74
2023/04/16 00:34:29;;;;;;;49.60;30.55;;;9.10;99.90;;;;;;5061750;28;20032;-75
2023/04/16 00:36:54;;;;;;;54.60;30.92;;;9.00;99.90;;;;;;5061725;28;20031;-73
2023/04/16 00:39:20;;;;;;;55.22;30.15;;;9.00;99.90;;;;;;5061958;28;20082;-74
2023/04/16 00:41:45;;;;;;;54.08;30.73;;;9.00;99.90;;;;;;5061208;28;20037;-75
2023/04/16 00:44:11;;;;;;;56.17;30.98;;;8.90;99.90;;;;;;5061282;28;20084;-73
2023/04/16 00:46:37;;;;;;;51.55;30.02;;;8.90;99.90;;;;;;5063118;28;20041;-73
2023/04/16 00:49:03;;;;;;;55.53;31.83;;;8.90;99.90;;;;;;5062949;28;20084;-74
2023/04/16 00:51:30;;;;;;;58.70;30.73;;;8.90;99.90;;;;;;5061836;28;20033;-72
2023/04/16 00:53:56;;;;;;;56.28;31.13;;;8.90;99.90;;;;;;5060938;28;20032;-74
2023/04/16 00:56:23;;;;;;;53.40;30.48;;;8.90;99.90;;;;;;5062685;28;21036;-74
2023/04/16 00:58:49;;;;;;;52.47;30.70;;;8.90;99.90;;;;;;5060611;28;20056;-74
2023/04/16 01:01:15;;;;;;;58.03;31.52;;;8.90;99.90;;;;;;5062742;28;20078;-74
2023/04/16 01:03:45;;;;;;;52.42;30.50;;;8.90;99.90;;;;;;5061818;28;20033;-73
2023/04/16 01:06:12;;;;;;;51.83;30.20;;;9.00;99.90;;;;;;5062047;28;20033;-75
2023/04/16 01:08:38;;;;;;;52.78;31.88;;;8.90;99.90;;;;;;5062833;28;20021;-74
2023/04/16 01:11:04;;;;;;;60.78;31.23;;;8.90;99.90;;;;;;5062716;28;20103;-77
2023/04/16 01:13:30;;;;;;;59.53;32.92;;;8.90;99.90;;;;;;5062539;28;20036;-74
2023/04/16 01:15:55;;;;;;;53.55;30.63;;;8.90;99.90;;;;;;5062032;28;20172;-75
2023/04/16 01:18:22;;;;;;;51.72;30.17;;;8.90;99.90;;;;;;5062367;28;20043;-76
2023/04/16 01:20:51;;;;;;;57.33;30.33;;;8.90;99.90;;;;;;5060989;28;20080;-73
2023/04/16 01:23:17;;;;;;;50.85;30.55;;;8.90;99.90;;;;;;5061912;28;20029;-74
2023/04/16 01:25:43;;;;;;;52.42;30.25;;;8.90;99.90;;;;;;5060820;28;20079;-73
2023/04/16 01:28:09;;;;;;;52.45;29.33;;;8.90;99.90;;;;;;5060580;28;20055;-75
2023/04/16 01:30:35;;;;;;;56.80;30.45;;;8.80;99.90;;;;;;5061005;28;20021;-75
2023/04/16 01:33:01;;;;;;;54.83;30.63;;;8.80;99.90;;;;;;5061232;28;20021;-73
2023/04/16 01:35:26;;;;;;;56.88;30.35;;;8.80;99.90;;;;;;5060748;28;20126;-75
2023/04/16 01:37:52;;;;;;;51.80;30.50;;;8.80;99.90;;;;;;5060953;28;20053;-75
2023/04/16 01:40:18;;;;;;;51.20;30.90;;;8.80;99.90;;;;;;5059483;28;20021;-74
2023/04/16 01:42:43;;;;;;;58.75;31.35;;;8.80;99.90;;;;;;5061155;28;20033;-75
2023/04/16 01:45:09;;;;;;;51.67;29.45;;;8.70;99.90;;;;;;5058411;28;20064;-74
2023/04/16 01:47:35;;;;;;;54.17;30.52;;;8.70;99.90;;;;;;5060459;28;20029;-73
2023/04/16 01:50:02;;;;;;;54.42;29.73;;;8.80;99.90;;;;;;5061133;28;20044;-77
2023/04/16 01:52:28;;;;;;;59.42;31.52;;;8.80;99.90;;;;;;5060970;28;20032;-73
2023/04/16 01:54:53;;;;;;;54.65;30.30;;;8.80;99.90;;;;;;5057926;28;20017;-74
2023/04/16 01:57:19;;;;;;;57.40;30.60;;;8.80;99.90;;;;;;5060421;28;20021;-76
2023/04/16 01:59:44;;;;;;;52.55;29.30;;;8.80;99.90;;;;;;5059286;28;20013;-77
2023/04/16 02:02:13;;;;;;;54.45;29.73;;;8.80;99.90;;;;;;5059470;28;20028;-74
2023/04/16 02:04:41;;;;;;;51.13;30.42;;;8.80;99.90;;;;;;5058571;28;20096;-76
2023/04/16 02:07:07;;;;;;;54.58;31.13;;;8.80;99.90;;;;;;5060596;28;20390;-76
2023/04/16 02:09:37;;;;;;;51.08;30.05;;;8.80;99.90;;;;;;5059328;28;20029;-75
2023/04/16 02:12:03;;;;;;;51.55;30.05;;;8.70;99.90;;;;;;5060341;28;20037;-76
2023/04/16 02:14:29;;;;;;;53.95;31.50;;;8.70;99.90;;;;;;5060299;28;20038;-75
2023/04/16 02:16:55;;;;;;;50.95;30.40;;;8.70;99.90;;;;;;5059665;28;20037;-75
2023/04/16 02:19:21;;;;;;;51.28;28.88;;;8.80;99.90;;;;;;5060505;28;20060;-75
2023/04/16 02:21:47;;;;;;;58.53;31.88;;;8.70;99.90;;;;;;5060452;28;20017;-75
2023/04/16 02:24:13;;;;;;;56.92;31.77;;;8.70;99.90;;;;;;5060367;28;20095;-73
2023/04/16 02:26:40;;;;;;;57.42;31.98;;;8.80;99.90;;;;;;5060024;28;20045;-75
2023/04/16 02:29:05;;;;;;;51.08;30.33;;;8.70;99.90;;;;;;5064669;28;20025;-74
2023/04/16 02:31:31;;;;;;;52.75;30.05;;;8.70;99.90;;;;;;5064397;28;20059;-74
2023/04/16 02:33:57;;;;;;;53.58;30.58;;;8.70;99.90;;;;;;5064017;28;20025;-75
2023/04/16 02:36:23;;;;;;;50.45;29.23;;;8.70;99.90;;;;;;5062178;28;20508;-74
2023/04/16 02:38:48;;;;;;;59.38;31.92;;;8.70;99.90;;;;;;5062667;28;20047;-74
2023/04/16 02:41:14;;;;;;;53.30;30.83;;;8.70;99.90;;;;;;5062756;28;20021;-73
2023/04/16 02:43:39;;;;;;;58.10;32.45;;;8.70;99.90;;;;;;5064149;28;20079;-75
2023/04/16 02:46:05;;;;;;;55.15;31.33;;;8.70;99.90;;;;;;5063386;28;20110;-75
2023/04/16 02:48:31;;;;;;;58.72;31.90;;;8.70;99.90;;;;;;5065559;28;20425;-73
2023/04/16 02:50:57;;;;;;;53.63;31.50;;;8.60;99.90;;;;;;5065285;28;20025;-74
2023/04/16 02:53:23;;;;;;;57.72;32.35;;;8.60;99.90;;;;;;5065087;28;20051;-74
2023/04/16 02:55:53;;;;;;;59.50;32.55;;;8.60;99.90;;;;;;5065007;28;20025;-73
2023/04/16 02:58:25;;;;;;;62.47;32.45;;;8.60;99.90;;;;;;5064954;28;20410;-73
2023/04/16 03:00:52;;;;;;;55.25;32.25;;;8.60;99.90;;;;;;5064658;28;20013;-73
2023/04/16 03:03:19;;;;;;;56.13;32.90;;;8.60;99.90;;;;;;5064901;28;20068;-75
2023/04/16 03:05:44;;;;;;;56.00;32.55;;;8.60;99.90;;;;;;5062846;28;20056;-73
2023/04/16 03:08:10;;;;;;;61.25;32.78;;;8.60;99.90;;;;;;5065145;28;20028;-73
2023/04/16 03:10:36;;;;;;;59.58;33.30;;;8.60;99.90;;;;;;5064985;28;20059;-74
2023/04/16 03:13:02;;;;;;;58.33;33.25;;;8.60;99.90;;;;;;5064455;28;20021;-73
2023/04/16 03:15:29;;;;;;;58.92;33.38;;;8.60;99.90;;;;;;5064499;28;20044;-75
2023/04/16 03:17:55;;;;;;;60.13;34.88;;;8.60;99.90;;;;;;5064802;28;20072;-74
2023/04/16 03:20:20;;;;;;;61.95;34.05;;;8.60;99.90;;;;;;5064630;28;20470;-73
2023/04/16 03:22:46;;;;;;;65.57;33.95;;;8.60;99.90;;;;;;5064584;28;20020;-73
2023/04/16 03:25:12;;;;;;;60.38;32.75;;;8.60;99.90;;;;;;5064640;28;20033;-74
2023/04/16 03:27:38;;;;;;;55.72;32.25;;;8.60;99.90;;;;;;5064778;28;20025;-75
2023/04/16 03:30:09;;;;;;;57.95;31.98;;;8.60;99.90;;;;;;5064945;28;20035;-76
2023/04/16 03:32:35;;;;;;;59.72;33.00;;;8.60;99.90;;;;;;5064349;28;20067;-75
2023/04/16 03:35:05;;;;;;;62.75;32.40;;;8.60;99.90;;;;;;5063004;28;20021;-73
2023/04/16 03:37:31;;;;;;;60.97;32.58;;;8.60;99.90;;;;;;5064046;28;20533;-74
2023/04/16 03:39:57;;;;;;;58.42;34.13;;;8.60;99.90;;;;;;5064156;28;20033;-73
2023/04/16 03:42:22;;;;;;;56.58;31.33;;;8.60;99.90;;;;;;5064191;28;20027;-74
2023/04/16 03:44:48;;;;;;;54.15;32.15;;;8.60;99.90;;;;;;5063776;28;20085;-75
2023/04/16 03:47:13;;;;;;;56.55;31.95;;;8.60;99.90;;;;;;5064272;28;20033;-74
2023/04/16 03:49:39;;;;;;;57.28;32.22;;;8.60;99.90;;;;;;5064051;28;20052;-73
2023/04/16 03:52:05;;;;;;;57.13;32.83;;;8.60;99.90;;;;;;5064472;28;20025;-75
2023/04/16 03:54:31;;;;;;;63.20;33.17;;;8.60;99.90;;;;;;5063890;28;20069;-75
2023/04/16 03:56:57;;;;;;;58.78;32.17;;;8.60;99.90;;;;;;5064096;28;20051;-74
2023/04/16 03:59:22;;;;;;;60.78;32.83;;;8.50;99.90;;;;;;5062581;28;20037;-76
2023/04/16 04:01:48;;;;;;;58.05;32.63;;;8.50;99.90;;;;;;5062585;28;20116;-74
2023/04/16 04:04:14;;;;;;;57.58;31.75;;;8.50;99.90;;;;;;5061750;28;20025;-74
2023/04/16 04:06:40;;;;;;;61.95;31.50;;;8.50;99.90;;;;;;5063882;28;20493;-74
2023/04/16 04:09:06;;;;;;;58.58;31.13;;;8.60;99.90;;;;;;5064123;28;20123;-75
2023/04/16 04:11:31;;;;;;;58.13;32.47;;;8.50;99.90;;;;;;5063368;28;20033;-73
2023/04/16 04:13:57;;;;;;;57.53;32.70;;;8.50;99.90;;;;;;5062348;28;20035;-74
2023/04/16 04:16:23;;;;;;;62.33;32.17;;;8.50;99.90;;;;;;5063435;28;20027;-75
2023/04/16 04:18:48;;;;;;;58.17;31.27;;;8.50;99.90;;;;;;5063564;28;20024;-74
2023/04/16 04:21:14;;;;;;;59.50;32.75;;;8.50;99.90;;;;;;5063327;28;20074;-75
2023/04/16 04:23:41;;;;;;;60.33;31.92;;;8.50;99.90;;;;;;5063524;28;20082;-76
2023/04/16 04:26:07;;;;;;;52.13;29.60;;;8.60;99.90;;;;;;5063747;28;20108;-75
2023/04/16 04:28:34;;;;;;;51.13;31.15;;;8.50;99.90;;;;;;5061898;28;20021;-74
2023/04/16 04:31:00;;;;;;;60.22;32.40;;;8.50;99.90;;;;;;5063398;28;20029;-74
2023/04/16 04:33:26;;;;;;;55.88;31.33;;;8.50;99.90;;;;;;5061311;28;20132;-74
2023/04/16 04:35:52;;;;;;;58.45;32.25;;;8.50;99.90;;;;;;5063223;28;20024;-72
2023/04/16 04:38:20;;;;;;;58.25;32.55;;;8.50;99.90;;;;;;5063280;28;20468;-72
2023/04/16 04:40:47;;;;;;;53.20;30.40;;;8.50;99.90;;;;;;5061784;28;20036;-72
2023/04/16 04:43:12;;;;;;;52.95;30.77;;;8.50;99.90;;;;;;5063292;28;20048;-72
2023/04/16 04:45:38;;;;;;;54.75;31.08;;;8.50;99.90;;;;;;5062761;28;20068;-72
2023/04/16 04:48:03;;;;;;;54.22;31.13;;;8.60;99.90;;;;;;5063132;28;20124;-71
2023/04/16 04:50:29;;;;;;;56.42;31.23;;;8.50;99.90;;;;;;5062230;28;20086;-71
2023/04/16 04:52:55;;;;;;;55.58;30.27;;;8.50;99.90;;;;;;5061792;28;20035;-71
2023/04/16 04:55:20;;;;;;;57.47;31.50;;;8.50;99.90;;;;;;5062235;28;20017;-73
2023/04/16 04:57:46;;;;;;;50.42;28.73;;;8.50;99.90;;;;;;5061768;28;20021;-71
2023/04/16 05:00:12;;;;;;;50.72;28.85;;;8.50;99.90;;;;;;5062778;28;20044;-72
2023/04/16 05:02:37;;;;;;;51.25;29.52;;;8.50;99.90;;;;;;5062948;28;20021;-72
2023/04/16 05:05:03;;;;;;;56.00;30.70;;;8.50;99.90;;;;;;5062549;28;20386;-72
2023/04/16 05:07:29;;;;;;;53.03;29.80;;;8.50;99.90;;;;;;5062199;28;20089;-74
2023/04/16 05:09:55;;;;;;;56.40;29.48;;;8.60;99.90;;;;;;5061437;28;20529;-71
2023/04/16 05:12:20;;;;;;;50.17;29.85;;;8.60;99.90;;;;;;5061396;28;20033;-72
2023/04/16 05:14:46;;;;;;;55.38;29.48;;;8.60;99.90;;;;;;5061037;28;20021;-72
2023/04/16 05:17:12;;;;;;;52.47;30.20;;;8.50;99.90;;;;;;5062491;28;20478;-72
2023/04/16 05:19:37;;;;;;;54.90;29.92;;;8.60;99.90;;;;;;5061219;28;20032;-73
2023/04/16 05:22:03;;;;;;;49.70;29.13;;;8.60;99.90;;;;;;5062868;28;20040;-71
2023/04/16 05:24:28;;;;;;;53.15;29.23;;;8.60;99.90;;;;;;5062441;28;20861;-72
2023/04/16 05:26:55;;;;;;;49.92;28.23;;;8.70;99.90;;;;;;5062518;28;20049;-72
2023/04/16 05:29:21;;;;;;;47.60;28.23;;;8.60;99.90;;;;;;5062319;28;20017;-72
2023/04/16 05:31:46;;;;;;;54.92;30.52;;;8.70;99.90;;;;;;5061033;28;20029;-70
2023/04/16 05:34:12;;;;;;;54.75;29.27;;;8.70;99.90;;;;;;5062322;28;20029;-73
2023/04/16 05:36:37;;;;;;;51.80;28.90;;;8.70;99.90;;;;;;5062348;28;20021;-72
2023/04/16 05:39:03;;;;;;;52.88;27.85;;;8.70;99.90;;;;;;5061222;28;20037;-72
2023/04/16 05:41:29;;;;;;;48.92;28.02;;;8.70;99.90;;;;;;5062202;28;20025;-73
2023/04/16 05:43:54;;;;;;;51.53;28.52;;;8.80;99.90;;;;;;5060569;28;20124;-73
2023/04/16 05:46:20;;;;;;;45.35;26.95;;;8.80;99.90;;;;;;5060715;28;20067;-74
2023/04/16 05:48:45;;;;;;;44.55;25.45;;;8.80;99.90;;;;;;5060706;28;20062;-73
2023/04/16 05:51:11;;;;;;;49.38;26.02;;;8.80;99.90;;;;;;5062212;28;20021;-72
2023/04/16 05:53:37;;;;;;;48.78;26.27;;;8.90;99.90;;;;;;5062263;28;20036;-72
2023/04/16 05:56:02;;;;;;;49.72;27.25;;;8.80;99.90;;;;;;5062204;28;20124;-71
2023/04/16 05:58:28;;;;;;;46.95;27.00;;;8.90;99.90;;;;;;5062079;28;20029;-72
2023/04/16 06:00:53;;;;;;;46.95;26.63;;;8.90;99.90;;;;;;5062276;28;20029;-73
2023/04/16 06:03:19;;;;;;;47.08;26.85;;;8.90;99.90;;;;;;5066254;28;20473;-72
2023/04/16 06:05:44;;;;;;;44.95;26.40;;;8.90;99.90;;;;;;5066113;28;20413;-72
2023/04/16 06:08:10;;;;;;;47.38;26.23;;;9.00;99.90;;;;;;5066328;28;20031;-73
2023/04/16 06:10:36;;;;;;;49.47;26.70;;;9.00;99.90;;;;;;5064593;28;20013;-72
2023/04/16 06:13:01;;;;;;;44.65;24.60;;;9.10;99.90;;;;;;5064955;28;20025;-71
2023/04/16 06:15:27;;;;;;;47.00;26.38;;;9.10;99.90;;;;;;5065578;28;20024;-71
2023/04/16 06:17:53;;;;;;;47.38;25.17;;;9.20;99.90;;;;;;5066021;28;20033;-71
2023/04/16 06:20:19;;;;;;;44.97;25.48;;;9.20;99.90;;;;;;5065417;28;20021;-72
2023/04/16 06:22:44;;;;;;;45.10;25.20;;;9.20;99.90;;;;;;5065586;28;20153;-72
2023/04/16 06:25:10;;;;;;;43.03;25.35;;;9.20;99.90;;;;;;5065640;28;20083;-72
2023/04/16 06:27:36;;;;;;;45.53;25.58;;;9.20;99.90;;;;;;5065979;28;20087;-72
2023/04/16 06:30:01;;;;;;;47.20;25.85;;;9.20;99.90;;;;;;5065385;28;20056;-71
2023/04/16 06:32:27;;;;;;;40.42;24.25;;;9.30;99.90;;;;;;5065832;28;20029;-73
2023/04/16 06:34:53;;;;;;;42.75;25.67;;;9.30;99.90;;;;;;5065708;28;20025;-72
2023/04/16 06:37:18;;;;;;;42.25;24.27;;;9.30;99.90;;;;;;5065552;28;20169;-72
2023/04/16 06:39:44;;;;;;;44.03;24.38;;;9.30;99.90;;;;;;5065408;28;20033;-72
2023/04/16 06:42:09;;;;;;;43.35;24.77;;;9.40;99.90;;;;;;5065543;28;20025;-72
2023/04/16 06:44:35;;;;;;;43.45;24.77;;;9.40;99.90;;;;;;5065301;28;20041;-71
2023/04/16 06:47:01;;;;;;;43.58;24.60;;;9.40;99.90;;;;;;5065639;28;20021;-71
2023/04/16 06:49:26;;;;;;;47.08;24.75;;;9.50;99.90;;;;;;5065257;28;20235;-71
2023/04/16 06:51:52;;;;;;;44.63;24.85;;;9.40;99.90;;;;;;5063866;28;20024;-71
2023/04/16 06:54:18;;;;;;;42.40;25.10;;;9.50;99.90;;;;;;5065289;28;20104;-71
2023/04/16 06:56:44;;;;;;;40.20;24.40;;;9.60;99.90;;;;;;5063875;28;20083;-72
2023/04/16 06:59:09;;;;;;;42.60;24.33;;;9.60;99.90;;;;;;5065229;28;20033;-72
2023/04/16 07:01:35;;;;;;;41.30;23.50;;;9.60;99.90;;;;;;5065411;28;20024;-72
2023/04/16 07:04:00;;;;;;;43.00;24.13;;;9.70;99.90;;;;;;5065093;28;20466;-71
2023/04/16 07:06:26;;;;;;;42.35;23.50;;;9.70;99.90;;;;;;5064754;28;20041;-71
2023/04/16 07:08:52;;;;;;;43.47;23.63;;;9.70;99.90;;;;;;5064963;28;20025;-71
2023/04/16 07:11:18;;;;;;;42.50;23.30;;;9.70;99.90;;;;;;5065045;28;20048;-72
2023/04/16 07:13:43;;;;;;;46.45;24.80;;;9.80;99.90;;;;;;5064094;28;20421;-71
2023/04/16 07:16:09;;;;;;;43.15;22.98;;;9.80;99.90;;;;;;5064779;28;20033;-72
2023/04/16 07:18:35;;;;;;;41.63;23.42;;;9.80;99.90;;;;;;5064877;28;20083;-72
2023/04/16 07:21:00;;;;;;;46.50;23.20;;;9.80;99.90;;;;;;5064750;28;20025;-69
2023/04/16 07:23:26;;;;;;;50.70;24.40;;;9.90;99.90;;;;;;5064740;28;20027;-71
2023/04/16 07:25:52;;;;;;;42.40;23.80;;;9.90;99.90;;;;;;5064662;28;20028;-70
2023/04/16 07:28:17;;;;;;;42.20;22.98;;;9.90;99.90;;;;;;5064609;28;20021;-70
2023/04/16 07:30:43;;;;;;;40.72;23.20;;;9.90;99.90;;;;;;5063231;28;20032;-70
2023/04/16 07:33:09;;;;;;;45.13;23.67;;;9.90;99.90;;;;;;5064505;28;20040;-72
2023/04/16 07:35:34;;;;;;;41.20;23.48;;;10.00;99.90;;;;;;5064412;28;20140;-71
2023/04/16 07:38:00;;;;;;;43.72;23.92;;;10.00;99.90;;;;;;5064498;28;20060;-72
2023/04/16 07:40:26;;;;;;;43.63;23.27;;;10.10;99.90;;;;;;5064244;28;20051;-70
2023/04/16 07:42:52;;;;;;;40.13;22.88;;;10.10;99.90;;;;;;5064366;28;20021;-72
2023/04/16 07:45:18;;;;;;;41.53;22.77;;;10.10;99.90;;;;;;5062558;28;20049;-70
2023/04/16 07:47:44;;;;;;;41.92;22.98;;;10.20;99.90;;;;;;5064508;28;20032;-71
2023/04/16 07:50:11;;;;;;;39.83;22.60;;;10.20;99.90;;;;;;5063455;28;20025;-73
2023/04/16 07:52:40;;;;;;;43.67;24.02;;;10.30;99.90;;;;;;5064451;28;20029;-72
2023/04/16 07:55:07;;;;;;;40.72;23.70;;;10.30;99.90;;;;;;5063729;28;20048;-71
2023/04/16 07:57:32;;;;;;;39.47;22.90;;;10.30;99.90;;;;;;5063831;28;20013;-72
2023/04/16 07:59:58;;;;;;;43.42;22.60;;;10.40;99.90;;;;;;5062422;28;20028;-72
2023/04/16 08:02:23;;;;;;;42.10;21.88;;;10.40;99.90;;;;;;5063628;28;20089;-72
2023/04/16 08:04:49;;;;;;;37.05;22.38;;;10.60;99.90;;;;;;5063769;28;20470;-72
2023/04/16 08:07:15;;;;;;;43.03;23.40;;;10.60;99.90;;;;;;5062439;28;20021;-72
2023/04/16 08:09:53;;;;;;;38.40;22.42;;;10.70;99.90;;;;;;5063982;28;20076;-72
2023/04/16 08:12:19;;;;;;;43.92;23.20;;;10.70;99.90;;;;;;5063779;28;20040;-72
2023/04/16 08:14:46;;;;;;;39.17;22.52;;;10.80;99.90;;;;;;5063632;28;20029;-72
2023/04/16 08:17:12;;;;;;;46.50;21.13;;;10.80;99.90;;;;;;5062466;28;20678;-71
2023/04/16 08:19:38;;;;;;;40.17;22.27;;;10.90;99.90;;;;;;5062621;28;20085;-70
2023/04/16 08:22:03;;;;;;;37.33;22.00;;;10.90;99.90;;;;;;5061204;28;20060;-72
2023/04/16 08:24:29;;;;;;;38.05;21.55;;;11.00;99.90;;;;;;5059994;28;20021;-71
2023/04/16 08:26:55;;;;;;;38.55;21.85;;;11.10;99.90;;;;;;5061555;28;20075;-71
2023/04/16 08:29:20;;;;;;;37.85;21.38;;;11.20;99.90;;;;;;5060861;28;20039;-72
2023/04/16 08:31:46;;;;;;;40.55;21.55;;;11.20;99.90;;;;;;5060667;28;20056;-71
2023/04/16 08:34:12;;;;;;;40.33;21.60;;;11.30;99.90;;;;;;5062137;28;20017;-72
2023/04/16 08:36:37;;;;;;;37.25;21.48;;;11.40;99.90;;;;;;5059768;28;20036;-72
2023/04/16 08:39:03;;;;;;;39.30;22.40;;;11.40;99.90;;;;;;5062136;28;20071;-71
2023/04/16 08:41:33;;;;;;;38.97;22.48;;;11.40;99.90;;;;;;5058422;28;20033;-71
2023/04/16 08:44:01;;;;;;;38.15;21.23;;;11.40;99.90;;;;;;5060146;28;20033;-71
2023/04/16 08:46:28;;;;;;;39.63;22.15;;;11.40;99.90;;;;;;5061160;28;20037;-71
2023/04/16 08:48:56;;;;;;;43.92;23.05;;;11.40;99.90;;;;;;5062513;28;20032;-71
2023/04/16 08:51:25;;;;;;;39.22;22.20;;;11.40;99.90;;;;;;5062507;28;20017;-71
2023/04/16 08:53:52;;;;;;;38.17;21.13;;;11.40;99.90;;;;;;5061437;28;20025;-72
2023/04/16 08:56:21;;;;;;;37.63;21.13;;;11.40;99.90;;;;;;5061229;28;20051;-71
2023/04/16 08:58:49;;;;;;;39.63;21.63;;;11.50;99.90;;;;;;5061715;28;20047;-71
2023/04/16 09:01:18;;;;;;;38.75;22.60;;;11.50;99.90;;;;;;5060853;28;20028;-71
2023/04/16 09:03:46;;;;;;;37.15;21.95;;;11.60;99.90;;;;;;5061204;28;20029;-71
2023/04/16 09:06:13;;;;;;;37.95;21.40;;;11.60;99.90;;;;;;5059871;28;20084;-71
2023/04/16 09:08:39;;;;;;;37.15;22.25;;;11.70;99.90;;;;;;5060711;28;20453;-72
2023/04/16 09:11:05;;;;;;;37.47;21.33;;;11.80;99.90;;;;;;5061808;28;20041;-72
2023/04/16 09:13:31;;;;;;;38.45;21.48;;;11.80;99.90;;;;;;5060238;28;20032;-71
2023/04/16 09:15:57;;;;;;;36.25;20.98;;;11.80;99.90;;;;;;5060458;28;20036;-72
2023/04/16 09:18:23;;;;;;;36.22;21.13;;;11.90;99.90;;;;;;5060381;28;20033;-71
2023/04/16 09:20:50;;;;;;;38.92;21.25;;;12.00;99.90;;;;;;5060336;28;20382;-72
2023/04/16 09:23:16;;;;;;;39.50;22.15;;;12.10;99.90;;;;;;5062403;28;20088;-71
2023/04/16 09:25:42;;;;;;;38.50;22.70;;;12.10;99.90;;;;;;5059994;28;20243;-71
2023/04/16 09:28:11;;;;;;;35.10;21.58;;;12.00;99.90;;;;;;5061170;28;20033;-71
2023/04/16 09:30:37;;;;;;;37.15;22.17;;;12.00;99.90;;;;;;5060591;28;20040;-72
2023/04/16 09:33:21;;;;;;;35.28;21.63;;;12.00;99.90;;;;;;5062141;28;20033;-71
2023/04/16 09:35:51;;;;;;;40.65;21.77;;;12.00;99.90;;;;;;5060684;28;20052;-72
2023/04/16 09:38:18;;;;;;;35.60;21.40;;;11.90;99.90;;;;;;5062468;28;20036;-71
2023/04/16 09:40:44;;;;;;;34.70;20.73;;;11.90;99.90;;;;;;5061483;28;20036;-72
2023/04/16 09:43:19;;;;;;;39.72;22.00;;;11.80;99.90;;;;;;5062400;28;20025;-72
2023/04/16 09:45:53;;;;;;;42.00;21.38;;;11.80;99.90;;;;;;5059381;28;20080;-72
2023/04/16 09:48:30;;;;;;;40.63;22.17;;;11.70;99.90;;;;;;5060394;28;20071;-70
2023/04/16 09:50:57;;;;;;;41.55;23.20;;;11.80;99.90;;;;;;5061109;28;20036;-72
2023/04/16 09:53:30;;;;;;;37.53;21.75;;;11.70;99.90;;;;;;5060654;28;20025;-74
2023/04/16 09:55:56;;;;;;;36.60;21.30;;;11.70;99.90;;;;;;5061669;28;20371;-72
2023/04/16 09:58:26;;;;;;;37.88;21.13;;;11.70;99.90;;;;;;5061879;28;20064;-71
2023/04/16 10:01:01;;;;;;;38.20;20.90;;;11.70;99.90;;;;;;5061622;28;20021;-72
2023/04/16 10:03:34;;;;;;;37.10;21.77;;;11.70;99.90;;;;;;5061446;28;20039;-71
2023/04/16 10:06:21;;;;;;;35.03;21.02;;;11.80;99.90;;;;;;5060202;28;20040;-72
2023/04/16 10:08:48;;;;;;;38.30;20.88;;;11.90;99.90;;;;;;5060118;28;20079;-72
2023/04/16 10:11:14;;;;;;;33.78;20.73;;;11.90;99.90;;;;;;5060316;28;20113;-71
2023/04/16 10:13:40;;;;;;;33.50;21.00;;;11.90;99.90;;;;;;5062137;28;20053;-73
2023/04/16 10:16:07;;;;;;;35.58;20.95;;;12.00;99.90;;;;;;5061800;28;20037;-71
2023/04/16 10:18:37;;;;;;;38.42;21.25;;;12.00;99.90;;;;;;5060270;28;20018;-72
2023/04/16 10:21:03;;;;;;;38.65;20.48;;;12.10;99.90;;;;;;5061605;28;20044;-72
2023/04/16 10:23:28;;;;;;;35.05;21.17;;;12.10;99.90;;;;;;5061831;28;20021;-72
2023/04/16 10:25:55;;;;;;;35.38;20.42;;;12.20;99.90;;;;;;5061402;28;20045;-71
2023/04/16 10:28:21;;;;;;;36.13;20.45;;;12.30;99.90;;;;;;5060088;28;20037;-72
2023/04/16 10:30:52;;;;;;;36.15;21.20;;;12.50;99.90;;;;;;5061396;28;20025;-72
2023/04/16 10:33:20;;;;;;;33.92;20.52;;;12.60;99.90;;;;;;5061427;28;20276;-72
2023/04/16 10:35:45;;;;;;;34.83;20.48;;;12.80;99.90;;;;;;5061476;28;20422;-71
2023/04/16 10:38:23;;;;;;;31.00;20.20;;;12.90;99.90;;;;;;5060067;28;20122;-71
2023/04/16 10:40:48;;;;;;;33.50;20.65;;;13.00;99.90;;;;;;5061315;28;20021;-71
2023/04/16 10:43:18;;;;;;;32.97;20.20;;;13.20;99.90;;;;;;5061693;28;20036;-72
2023/04/16 10:45:43;;;;;;;30.55;19.63;;;13.30;99.90;;;;;;5060057;28;20103;-72
2023/04/16 10:48:10;;;;;;;35.65;21.00;;;13.40;99.90;;;;;;5062496;28;20041;-72
2023/04/16 10:50:36;;;;;;;33.22;20.42;;;13.60;99.90;;;;;;5064767;28;20021;-72
2023/04/16 10:53:21;;;;;;;36.72;20.20;;;13.60;99.90;;;;;;5065269;28;20532;-72
2023/04/16 10:56:01;;;;;;;;;;;13.70;99.90;;;;;;5065760;28;20025;-71
2023/04/16 10:58:33;;;;;;;35.78;19.83;;;13.80;99.90;;;;;;5063984;28;19909;-71
2023/04/16 11:01:00;;;;;;;31.85;20.48;;;13.80;99.90;;;;;;5064412;28;20025;-72
2023/04/16 11:03:32;;;;;;;35.85;19.73;;;13.90;99.90;;;;;;5064702;28;20382;-70
2023/04/16 11:06:22;;;;;;;30.98;19.58;;;13.90;99.90;;;;;;5064150;28;20068;-72
2023/04/16 11:08:50;;;;;;;29.65;19.75;;;13.90;99.90;;;;;;5063468;28;20036;-72
2023/04/16 11:11:17;;;;;;;40.70;19.70;;;13.90;99.90;;;;;;5064716;28;20025;-70
2023/04/16 11:13:44;;;;;;;30.08;19.52;;;14.10;99.90;;;;;;5064414;28;20024;-72
2023/04/16 11:16:14;;;;;;;32.08;19.80;;;14.10;99.90;;;;;;5064702;28;20045;-71
2023/04/16 11:18:40;;;;;;;33.42;20.27;;;14.20;99.90;;;;;;5065061;28;20087;-71
2023/04/16 11:21:11;;;;;;;29.95;19.83;;;14.10;99.90;;;;;;5064550;28;20021;-73
2023/04/16 11:23:51;;;;;;;31.80;19.08;;;14.10;99.90;;;;;;5064681;28;20043;-71
2023/04/16 11:26:28;;;;;;;30.52;20.02;;;14.20;99.90;;;;;;5062956;28;20041;-72
2023/04/16 11:28:55;;;;;;;33.42;20.42;;;14.30;99.90;;;;;;5064331;28;20047;-71
2023/04/16 11:31:22;;;;;;;30.73;20.13;;;14.20;99.90;;;;;;5064054;28;20017;-71
2023/04/16 11:33:48;;;;;;;29.40;20.52;;;14.20;99.90;;;;;;5063126;28;20032;-71
2023/04/16 11:36:14;;;;;;;31.33;20.55;;;14.20;99.90;;;;;;5063093;28;20039;-71
2023/04/16 11:38:41;;;;;;;32.20;21.35;;;14.10;99.90;;;;;;5063156;28;20031;-71
2023/04/16 11:41:08;;;;;;;31.33;20.83;;;14.20;99.90;;;;;;5063245;28;20028;-71
2023/04/16 11:43:34;;;;;;;30.17;20.95;;;14.20;99.90;;;;;;5064330;28;20021;-71
2023/04/16 11:46:05;;;;;;;31.25;20.85;;;14.20;99.90;;;;;;5064009;28;20049;-71
2023/04/16 11:48:54;;;;;;;31.13;20.30;;;14.30;99.90;;;;;;5064005;28;20021;-70
2023/04/16 11:51:21;;;;;;;31.27;20.77;;;14.20;99.90;;;;;;5064163;28;20460;-71
2023/04/16 11:53:54;;;;;;;32.42;20.88;;;14.10;99.90;;;;;;5062750;28;20469;-72
2023/04/16 11:56:31;;;;;;;35.30;21.15;;;14.20;99.90;;;;;;5064127;28;20029;-71
2023/04/16 11:59:07;;;;;;;44.10;21.67;;;14.20;99.90;;;;;;5063671;28;20041;-71
2023/04/16 12:01:35;;;;;;;33.83;21.05;;;14.20;99.90;;;;;;5064174;28;20013;-71
2023/04/16 12:04:02;;;;;;;34.63;21.15;;;14.20;99.90;;;;;;5063538;28;20021;-72
2023/04/16 12:06:27;;;;;;;33.05;21.15;;;14.10;99.90;;;;;;5063704;28;20093;-69
2023/04/16 12:08:53;;;;;;;33.67;21.52;;;14.10;99.90;;;;;;5063091;28;20028;-71
2023/04/16 12:11:19;;;;;;;33.38;21.83;;;14.00;99.90;;;;;;5063926;28;20021;-71
2023/04/16 12:14:08;;;;;;;34.97;21.95;;;14.00;99.90;;;;;;5063626;28;20061;-71
2023/04/16 12:16:33;;;;;;;36.28;22.73;;;14.10;99.90;;;;;;5063315;28;20017;-71
2023/04/16 12:19:01;;;;;;;36.05;22.42;;;14.20;99.90;;;;;;5063395;28;20023;-71
2023/04/16 12:21:47;;;;;;;36.67;23.20;;;14.10;99.90;;;;;;5063209;28;20017;-71
2023/04/16 12:24:19;;;;;;;33.08;21.80;;;14.10;99.90;;;;;;5062094;28;20107;-73
2023/04/16 12:26:47;;;;;;;33.28;22.48;;;14.10;99.90;;;;;;5063078;28;20040;-72
2023/04/16 12:29:21;;;;;;;34.75;22.73;;;14.00;99.90;;;;;;5063074;28;20017;-71
2023/04/16 12:31:48;;;;;;;;;;;14.10;99.90;;;;;;5063878;28;20040;-70